Time;durP1;ratioP1;P1;durP2;ratioP2;P2;SDS_P1;SDS_P2;PMS_P1;PMS_P2;Temp;Humidity;BMP_temperature;BMP_pressure;BME280_temperature;BME280_humidity;BME280_pressure;Samples;Min_cycle;Max_cycle;Signal;HPM_P1;HPM_P2
2022/07/06 00:01:10;;;;;;;6.15;2.50;;;;;;;;;;5023220;28;20037;-64
2022/07/06 00:03:35;;;;;;;4.70;2.63;;;;;;;;;;5033229;28;20034;-64
2022/07/06 00:06:01;;;;;;;4.22;2.50;;;;;;;;;;5031196;28;20030;-64
2022/07/06 00:08:26;;;;;;;6.05;2.50;;;;;;;;;;5034045;28;20459;-64
2022/07/06 00:10:51;;;;;;;6.47;2.58;;;;;;;;;;5032627;28;20048;-65
2022/07/06 00:13:17;;;;;;;8.00;2.60;;;;;;;;;;5014998;28;20407;-64
2022/07/06 00:15:42;;;;;;;6.72;2.75;;;;;;;;;;5013110;28;20463;-64
2022/07/06 00:18:08;;;;;;;5.05;2.35;;;;;;;;;;5013493;28;20034;-64
2022/07/06 00:20:33;;;;;;;6.32;3.00;;;;;;;;;;5012534;28;20038;-64
2022/07/06 00:22:59;;;;;;;7.07;2.85;;;;;;;;;;5032241;28;20503;-64
2022/07/06 00:25:24;;;;;;;5.05;2.67;;;;;;;;;;5027150;28;20028;-64
2022/07/06 00:27:49;;;;;;;5.85;2.78;;;;;;;;;;5033050;28;20117;-64
2022/07/06 00:30:15;;;;;;;4.93;2.80;;;;;;;;;;5029837;28;20326;-63
2022/07/06 00:32:40;;;;;;;9.88;2.70;;;;;;;;;;5029869;28;20097;-63
2022/07/06 00:35:06;;;;;;;5.47;2.95;;;;;;;;;;5028593;28;20025;-64
2022/07/06 00:37:32;;;;;;;6.05;2.78;;;;;;;;;;5033143;28;20033;-63
2022/07/06 00:39:57;;;;;;;3.95;2.50;;;;;;;;;;5029740;28;20382;-63
2022/07/06 00:42:24;;;;;;;6.80;2.88;;;;;;;;;;5031879;28;20471;-64
2022/07/06 00:44:49;;;;;;;4.60;2.55;;;;;;;;;;5028046;28;20045;-63
2022/07/06 00:47:15;;;;;;;4.03;2.50;;;;;;;;;;5015088;28;20037;-63
2022/07/06 00:52:24;;;;;;;5.75;2.45;;;;;;;;;;5029056;28;20087;-63
2022/07/06 00:54:51;;;;;;;5.35;2.70;;;;;;;;;;5027187;28;20475;-64
2022/07/06 00:57:17;;;;;;;6.88;2.40;;;;;;;;;;5006660;28;20036;-64
2022/07/06 00:59:43;;;;;;;5.80;2.60;;;;;;;;;;5032776;28;20034;-64
2022/07/06 01:02:08;;;;;;;4.18;2.50;;;;;;;;;;5028408;28;20025;-64
2022/07/06 01:04:33;;;;;;;6.65;2.50;;;;;;;;;;5032971;28;20033;-63
2022/07/06 01:07:00;;;;;;;5.15;2.70;;;;;;;;;;5023389;28;20470;-64
2022/07/06 01:09:25;;;;;;;4.85;2.72;;;;;;;;;;5024169;28;20402;-63
2022/07/06 01:11:52;;;;;;;6.28;2.80;;;;;;;;;;5027587;28;20026;-64
2022/07/06 01:14:18;;;;;;;5.63;2.83;;;;;;;;;;5015229;28;20036;-63
2022/07/06 01:16:43;;;;;;;4.70;2.50;;;;;;;;;;5030733;28;20530;-63
2022/07/06 01:19:09;;;;;;;7.32;3.40;;;;;;;;;;5031202;28;20036;-63
2022/07/06 01:21:37;;;;;;;5.07;3.10;;;;;;;;;;5028454;28;20029;-63
2022/07/06 01:24:03;;;;;;;6.60;3.28;;;;;;;;;;5030167;28;20100;-63
2022/07/06 01:26:29;;;;;;;3.97;2.80;;;;;;;;;;5032949;28;20478;-63
2022/07/06 01:28:54;;;;;;;4.93;2.95;;;;;;;;;;5029852;28;20112;-63
2022/07/06 01:31:22;;;;;;;10.23;3.00;;;;;;;;;;5027395;28;20416;-64
2022/07/06 01:33:52;;;;;;;5.72;2.80;;;;;;;;;;5031366;28;20083;-63
2022/07/06 01:36:19;;;;;;;4.07;2.60;;;;;;;;;;5030398;28;20205;-63
2022/07/06 01:38:53;;;;;;;6.93;2.80;;;;;;;;;;5031591;28;20446;-63
2022/07/06 01:41:20;;;;;;;4.55;2.58;;;;;;;;;;5029370;28;20065;-63
2022/07/06 01:43:46;;;;;;;5.95;2.58;;;;;;;;;;5031272;28;20029;-63
2022/07/06 01:46:12;;;;;;;5.13;2.53;;;;;;;;;;5029194;28;20033;-64
2022/07/06 01:48:38;;;;;;;6.10;2.63;;;;;;;;;;5032300;28;20139;-63
2022/07/06 01:51:04;;;;;;;5.95;2.50;;;;;;;;;;5030173;28;20359;-63
2022/07/06 01:53:30;;;;;;;4.88;2.60;;;;;;;;;;5034346;28;20029;-63
2022/07/06 01:55:55;;;;;;;6.22;2.60;;;;;;;;;;5027290;28;20474;-64
2022/07/06 01:58:21;;;;;;;4.40;2.47;;;;;;;;;;5027365;28;20037;-64
2022/07/06 02:00:46;;;;;;;8.18;2.50;;;;;;;;;;5032026;28;20033;-63
2022/07/06 02:03:12;;;;;;;5.60;2.33;;;;;;;;;;5029048;28;20099;-66
2022/07/06 02:05:37;;;;;;;5.03;2.40;;;;;;;;;;5031598;28;20026;-65
2022/07/06 02:08:03;;;;;;;6.40;2.70;;;;;;;;;;5006266;28;20087;-63
2022/07/06 02:10:28;;;;;;;5.13;2.47;;;;;;;;;;5027149;28;20034;-64
2022/07/06 02:12:53;;;;;;;4.30;2.42;;;;;;;;;;5025116;28;20038;-64
2022/07/06 02:15:19;;;;;;;3.97;2.45;;;;;;;;;;4996967;28;20057;-64
2022/07/06 02:17:44;;;;;;;5.22;2.40;;;;;;;;;;5012258;28;20038;-64
2022/07/06 02:20:10;;;;;;;4.22;2.40;;;;;;;;;;5017642;28;20072;-63
2022/07/06 02:22:35;;;;;;;4.68;2.10;;;;;;;;;;5028549;28;20079;-63
2022/07/06 02:25:01;;;;;;;4.78;2.47;;;;;;;;;;5007877;28;20390;-63
2022/07/06 02:27:26;;;;;;;3.60;2.30;;;;;;;;;;5011823;28;20164;-63
2022/07/06 02:29:52;;;;;;;5.40;2.40;;;;;;;;;;5021457;28;20041;-63
2022/07/06 02:32:17;;;;;;;4.28;2.40;;;;;;;;;;5025502;28;20025;-63
2022/07/06 02:34:43;;;;;;;5.25;2.40;;;;;;;;;;5029995;28;20032;-63
2022/07/06 02:37:08;;;;;;;5.45;2.50;;;;;;;;;;5029876;28;20625;-63
2022/07/06 02:39:34;;;;;;;5.53;2.50;;;;;;;;;;5024806;28;20038;-63
2022/07/06 02:41:59;;;;;;;7.00;2.65;;;;;;;;;;5024890;28;20030;-63
2022/07/06 02:44:25;;;;;;;5.47;2.35;;;;;;;;;;5030742;28;20158;-64
2022/07/06 02:46:50;;;;;;;6.00;2.50;;;;;;;;;;5015040;28;20034;-63
2022/07/06 02:49:16;;;;;;;4.88;2.63;;;;;;;;;;5030832;28;20053;-63
2022/07/06 02:51:41;;;;;;;3.97;2.50;;;;;;;;;;5029901;28;20105;-63
2022/07/06 02:54:07;;;;;;;5.50;2.38;;;;;;;;;;5029706;28;20038;-63
2022/07/06 02:56:32;;;;;;;7.63;2.60;;;;;;;;;;5030493;28;20025;-63
2022/07/06 02:58:57;;;;;;;5.05;2.83;;;;;;;;;;5011421;28;20030;-63
2022/07/06 03:01:23;;;;;;;4.38;2.70;;;;;;;;;;5025864;28;20083;-63
2022/07/06 03:03:48;;;;;;;4.80;2.40;;;;;;;;;;5012210;28;20394;-63
2022/07/06 03:06:14;;;;;;;3.90;2.42;;;;;;;;;;5011527;28;20662;-63
2022/07/06 03:08:39;;;;;;;7.22;2.67;;;;;;;;;;5030373;28;20462;-63
2022/07/06 03:11:04;;;;;;;3.17;2.50;;;;;;;;;;5029110;28;20056;-63
2022/07/06 03:13:30;;;;;;;5.45;2.70;;;;;;;;;;5028272;28;20532;-63
2022/07/06 03:15:55;;;;;;;4.97;2.80;;;;;;;;;;5026845;28;20029;-63
2022/07/06 03:18:21;;;;;;;5.50;2.58;;;;;;;;;;5026865;28;20037;-54
2022/07/06 03:20:46;;;;;;;6.90;2.80;;;;;;;;;;5011944;28;20033;-55
2022/07/06 03:23:12;;;;;;;6.70;2.80;;;;;;;;;;4997615;28;20021;-58
2022/07/06 03:25:37;;;;;;;4.70;2.38;;;;;;;;;;5022365;28;20034;-55
2022/07/06 03:28:03;;;;;;;6.05;2.50;;;;;;;;;;5030372;28;20140;-57
2022/07/06 03:30:28;;;;;;;5.93;2.67;;;;;;;;;;5027894;28;20167;-53
2022/07/06 03:32:53;;;;;;;5.22;2.67;;;;;;;;;;5031139;28;20120;-56
2022/07/06 03:35:19;;;;;;;7.63;2.33;;;;;;;;;;5028967;28;20120;-63
2022/07/06 03:37:44;;;;;;;5.80;2.65;;;;;;;;;;5031042;28;20087;-63
2022/07/06 03:40:10;;;;;;;4.57;2.72;;;;;;;;;;5027851;28;20449;-63
2022/07/06 03:42:36;;;;;;;5.15;2.55;;;;;;;;;;5029658;28;20033;-62
2022/07/06 03:45:03;;;;;;;4.68;2.70;;;;;;;;;;5033373;28;20060;-62
2022/07/06 03:47:28;;;;;;;6.57;2.30;;;;;;;;;;5016556;28;20128;-61
2022/07/06 03:49:54;;;;;;;4.13;2.55;;;;;;;;;;5034615;28;20437;-62
2022/07/06 03:52:19;;;;;;;7.45;2.53;;;;;;;;;;5034722;28;20100;-62
2022/07/06 03:54:45;;;;;;;6.20;2.78;;;;;;;;;;5034920;28;20427;-62
2022/07/06 03:57:13;;;;;;;7.82;2.88;;;;;;;;;;5017257;28;20038;-62
2022/07/06 03:59:39;;;;;;;6.03;2.75;;;;;;;;;;5015174;28;20455;-62
2022/07/06 04:02:04;;;;;;;4.03;2.58;;;;;;;;;;4997025;28;20054;-62
2022/07/06 04:04:29;;;;;;;4.40;2.70;;;;;;;;;;5014988;28;20026;-64
2022/07/06 04:06:55;;;;;;;5.50;2.70;;;;;;;;;;5015199;28;20052;-63
2022/07/06 04:09:20;;;;;;;6.75;2.90;;;;;;;;;;5018678;28;20069;-63
2022/07/06 04:11:45;;;;;;;5.88;2.63;;;;;;;;;;5015194;28;20121;-63
2022/07/06 04:14:11;;;;;;;5.78;2.60;;;;;;;;;;5013954;28;20030;-63
2022/07/06 04:16:36;;;;;;;4.00;2.58;;;;;;;;;;5014676;28;20026;-63
2022/07/06 04:19:02;;;;;;;5.13;2.58;;;;;;;;;;5014279;28;20033;-63
2022/07/06 04:21:27;;;;;;;4.57;2.67;;;;;;;;;;5015084;28;20487;-63
2022/07/06 04:23:52;;;;;;;5.43;2.67;;;;;;;;;;5007913;28;20037;-63
2022/07/06 04:26:18;;;;;;;5.90;2.80;;;;;;;;;;5034000;28;20029;-63
2022/07/06 04:28:43;;;;;;;5.43;2.70;;;;;;;;;;5034375;28;20037;-63
2022/07/06 04:31:09;;;;;;;4.95;2.70;;;;;;;;;;5032621;28;20116;-63
2022/07/06 04:33:34;;;;;;;6.05;2.85;;;;;;;;;;5034447;28;20042;-62
2022/07/06 04:36:00;;;;;;;6.63;2.85;;;;;;;;;;5033864;28;20363;-63
2022/07/06 04:38:25;;;;;;;6.18;2.83;;;;;;;;;;5029076;28;20296;-62
2022/07/06 04:40:50;;;;;;;6.82;2.75;;;;;;;;;;5014588;28;20044;-62
2022/07/06 04:43:16;;;;;;;4.82;2.80;;;;;;;;;;5013487;28;20048;-62
2022/07/06 04:45:41;;;;;;;6.55;3.13;;;;;;;;;;5014078;28;20034;-62
2022/07/06 04:48:08;;;;;;;6.95;3.20;;;;;;;;;;5013576;28;20137;-63
2022/07/06 04:50:34;;;;;;;8.10;3.20;;;;;;;;;;5014397;28;20117;-62
2022/07/06 04:52:59;;;;;;;7.15;3.10;;;;;;;;;;5016582;28;20112;-63
2022/07/06 04:55:26;;;;;;;6.93;3.25;;;;;;;;;;5033514;28;20041;-62
2022/07/06 04:57:51;;;;;;;7.28;3.15;;;;;;;;;;5016202;28;20087;-62
2022/07/06 05:00:17;;;;;;;7.18;2.92;;;;;;;;;;5033392;28;20039;-62
2022/07/06 05:02:43;;;;;;;7.80;3.58;;;;;;;;;;5033922;28;20481;-62
2022/07/06 05:05:09;;;;;;;5.93;3.22;;;;;;;;;;5033061;28;20034;-62
2022/07/06 05:07:39;;;;;;;6.40;2.80;;;;;;;;;;5032681;28;20033;-62
2022/07/06 05:10:06;;;;;;;5.35;2.83;;;;;;;;;;5033065;28;20040;-63
2022/07/06 05:12:31;;;;;;;5.55;2.97;;;;;;;;;;5033826;28;20092;-63
2022/07/06 05:14:57;;;;;;;6.63;2.50;;;;;;;;;;5033532;28;20025;-62
2022/07/06 05:17:22;;;;;;;8.68;3.03;;;;;;;;;;5033093;28;20021;-62
2022/07/06 05:19:48;;;;;;;4.07;2.50;;;;;;;;;;5033299;28;20033;-62
2022/07/06 05:22:13;;;;;;;8.20;2.70;;;;;;;;;;5029754;28;20065;-62
2022/07/06 05:24:39;;;;;;;8.13;2.83;;;;;;;;;;5013275;28;20056;-62
2022/07/06 05:27:04;;;;;;;8.27;2.80;;;;;;;;;;5012574;28;20466;-62
2022/07/06 05:29:30;;;;;;;7.80;2.63;;;;;;;;;;5012998;28;20029;-62
2022/07/06 05:31:55;;;;;;;6.93;2.65;;;;;;;;;;5013624;28;20026;-62
2022/07/06 05:34:20;;;;;;;7.20;2.90;;;;;;;;;;5012721;28;20310;-62
2022/07/06 05:36:46;;;;;;;4.78;2.40;;;;;;;;;;5013763;28;20490;-63
2022/07/06 05:39:11;;;;;;;5.53;2.58;;;;;;;;;;5030623;28;20044;-62
2022/07/06 05:41:37;;;;;;;5.25;2.50;;;;;;;;;;5032905;28;20092;-62
2022/07/06 05:44:02;;;;;;;6.90;2.42;;;;;;;;;;5032310;28;20033;-63
2022/07/06 05:46:28;;;;;;;4.35;2.33;;;;;;;;;;5032967;28;20107;-62
2022/07/06 05:51:37;;;;;;;6.20;2.30;;;;;;;;;;5033108;28;20051;-63
2022/07/06 05:54:03;;;;;;;6.22;2.42;;;;;;;;;;5030724;28;20413;-63
2022/07/06 05:56:28;;;;;;;3.38;2.00;;;;;;;;;;5032807;28;20442;-63
2022/07/06 05:58:53;;;;;;;7.28;2.08;;;;;;;;;;5032574;28;20025;-63
2022/07/06 06:01:19;;;;;;;9.50;2.50;;;;;;;;;;5032155;28;20471;-62
2022/07/06 06:03:44;;;;;;;6.40;2.33;;;;;;;;;;5032275;28;20041;-62
2022/07/06 06:06:10;;;;;;;5.03;2.10;;;;;;;;;;5031875;28;20112;-66
2022/07/06 06:08:35;;;;;;;6.47;1.70;;;;;;;;;;5031718;28;20038;-65
2022/07/06 06:11:00;;;;;;;10.43;2.20;;;;;;;;;;5032255;28;20366;-64
2022/07/06 06:13:26;;;;;;;5.22;1.90;;;;;;;;;;5031838;28;20557;-63
2022/07/06 06:15:51;;;;;;;8.13;2.03;;;;;;;;;;5032663;28;20041;-64
2022/07/06 06:18:18;;;;;;;6.18;1.80;;;;;;;;;;5031882;28;20071;-63
2022/07/06 06:20:44;;;;;;;4.97;1.90;;;;;;;;;;5032708;28;20037;-63
2022/07/06 06:23:10;;;;;;;4.20;1.73;;;;;;;;;;5029595;28;20116;-64
2022/07/06 06:25:38;;;;;;;7.10;2.00;;;;;;;;;;5032378;28;20462;-63
2022/07/06 06:28:06;;;;;;;7.32;1.90;;;;;;;;;;5032335;28;20033;-63
2022/07/06 06:30:32;;;;;;;4.80;1.90;;;;;;;;;;5032521;28;20037;-64
2022/07/06 06:33:05;;;;;;;4.13;1.77;;;;;;;;;;5032339;28;20025;-62
2022/07/06 06:35:30;;;;;;;4.70;1.88;;;;;;;;;;5032143;28;20041;-62
2022/07/06 06:37:56;;;;;;;6.53;2.00;;;;;;;;;;5030572;28;20033;-61
2022/07/06 06:40:22;;;;;;;4.82;1.80;;;;;;;;;;5030748;28;20065;-62
2022/07/06 06:42:47;;;;;;;6.50;2.30;;;;;;;;;;5031152;28;20026;-62
2022/07/06 06:45:13;;;;;;;4.82;1.80;;;;;;;;;;5031492;28;20029;-62
2022/07/06 06:47:38;;;;;;;7.63;2.00;;;;;;;;;;5031895;28;20025;-62
2022/07/06 06:50:04;;;;;;;7.00;1.80;;;;;;;;;;5032116;28;20033;-62
2022/07/06 06:52:30;;;;;;;4.32;2.00;;;;;;;;;;5031512;28;20041;-62
2022/07/06 06:54:55;;;;;;;6.97;1.83;;;;;;;;;;5028135;28;20039;-62
2022/07/06 06:57:20;;;;;;;6.75;1.95;;;;;;;;;;5013479;28;20034;-62
2022/07/06 06:59:46;;;;;;;6.50;1.80;;;;;;;;;;5012406;28;20032;-62
2022/07/06 07:02:11;;;;;;;4.30;1.77;;;;;;;;;;5011722;28;20455;-62
2022/07/06 07:04:37;;;;;;;4.32;1.80;;;;;;;;;;5012302;28;20099;-62
2022/07/06 07:07:02;;;;;;;5.07;1.70;;;;;;;;;;5012288;28;20029;-63
2022/07/06 07:09:28;;;;;;;6.72;1.70;;;;;;;;;;5011643;28;20026;-63
2022/07/06 07:11:54;;;;;;;3.80;1.60;;;;;;;;;;5028157;28;20034;-63
2022/07/06 07:14:20;;;;;;;3.92;1.67;;;;;;;;;;5031153;28;20124;-64
2022/07/06 07:16:45;;;;;;;3.58;1.40;;;;;;;;;;5033152;28;20108;-64
2022/07/06 07:19:10;;;;;;;3.10;1.35;;;;;;;;;;5035194;28;20474;-64
2022/07/06 07:21:36;;;;;;;5.80;1.98;;;;;;;;;;5035481;28;20025;-63
2022/07/06 07:24:01;;;;;;;3.75;1.50;;;;;;;;;;5035684;28;20037;-64
2022/07/06 07:26:27;;;;;;;5.75;1.58;;;;;;;;;;5016423;28;20550;-64
2022/07/06 07:28:52;;;;;;;4.75;1.73;;;;;;;;;;5035616;28;20033;-64
2022/07/06 07:31:17;;;;;;;5.50;1.23;;;;;;;;;;5034927;28;20037;-64
2022/07/06 07:33:43;;;;;;;2.97;1.30;;;;;;;;;;5035405;28;20032;-63
2022/07/06 07:36:09;;;;;;;3.97;1.30;;;;;;;;;;5033190;28;20474;-63
2022/07/06 07:38:34;;;;;;;5.90;1.58;;;;;;;;;;5015750;28;20537;-64
2022/07/06 07:40:59;;;;;;;4.78;1.20;;;;;;;;;;5015681;28;20034;-63
2022/07/06 07:43:25;;;;;;;5.53;1.10;;;;;;;;;;4997371;28;20046;-64
2022/07/06 07:45:50;;;;;;;3.55;1.30;;;;;;;;;;5020662;28;20037;-62
2022/07/06 07:48:16;;;;;;;4.22;1.38;;;;;;;;;;5028690;28;20045;-64
2022/07/06 07:50:42;;;;;;;5.15;1.30;;;;;;;;;;5035280;28;20040;-64
2022/07/06 07:53:07;;;;;;;5.68;1.45;;;;;;;;;;5035271;28;20095;-63
2022/07/06 07:55:33;;;;;;;3.35;1.17;;;;;;;;;;5034322;28;20033;-64
2022/07/06 07:57:59;;;;;;;4.47;1.35;;;;;;;;;;5035124;28;20462;-64
2022/07/06 08:00:25;;;;;;;3.47;1.20;;;;;;;;;;5014973;28;20033;-64
2022/07/06 08:02:50;;;;;;;4.00;1.30;;;;;;;;;;5032608;28;20037;-64
2022/07/06 08:05:16;;;;;;;2.25;1.10;;;;;;;;;;5034273;28;20029;-63
2022/07/06 08:07:42;;;;;;;4.00;1.20;;;;;;;;;;5017220;28;20026;-64
2022/07/06 08:10:09;;;;;;;5.50;1.45;;;;;;;;;;5035322;28;20132;-64
2022/07/06 08:12:35;;;;;;;4.63;1.30;;;;;;;;;;5034252;28;20025;-65
2022/07/06 08:15:00;;;;;;;3.97;1.23;;;;;;;;;;5034828;28;20028;-65
2022/07/06 08:17:26;;;;;;;3.38;1.20;;;;;;;;;;5015385;28;20034;-65
2022/07/06 08:19:51;;;;;;;6.15;1.15;;;;;;;;;;5014674;28;20026;-65
2022/07/06 08:22:17;;;;;;;2.38;1.20;;;;;;;;;;5014547;28;20116;-64
2022/07/06 08:24:42;;;;;;;4.13;1.20;;;;;;;;;;5014990;28;20062;-64
2022/07/06 08:27:08;;;;;;;3.42;1.30;;;;;;;;;;5014658;28;20372;-64
2022/07/06 08:29:33;;;;;;;3.53;1.00;;;;;;;;;;5014112;28;20037;-65
2022/07/06 08:31:59;;;;;;;5.65;1.30;;;;;;;;;;5031068;28;20036;-65
2022/07/06 08:34:25;;;;;;;3.78;1.10;;;;;;;;;;5033558;28;20433;-64
2022/07/06 08:36:50;;;;;;;5.35;1.30;;;;;;;;;;5034324;28;20112;-65
2022/07/06 08:39:15;;;;;;;4.18;1.20;;;;;;;;;;5033736;28;20536;-65
2022/07/06 08:41:43;;;;;;;4.32;1.15;;;;;;;;;;5034057;28;20057;-64
2022/07/06 08:44:09;;;;;;;3.90;1.20;;;;;;;;;;5033976;28;20083;-64
2022/07/06 08:46:37;;;;;;;5.13;1.30;;;;;;;;;;5032536;28;20057;-64
2022/07/06 08:49:03;;;;;;;3.00;1.13;;;;;;;;;;5033461;28;20057;-64
2022/07/06 08:51:29;;;;;;;4.43;1.20;;;;;;;;;;5032234;28;20378;-64
2022/07/06 08:53:57;;;;;;;4.35;1.13;;;;;;;;;;5033934;28;20021;-64
2022/07/06 08:56:22;;;;;;;2.70;1.10;;;;;;;;;;5033427;28;20049;-64
2022/07/06 08:58:48;;;;;;;3.58;1.20;;;;;;;;;;5034318;28;20029;-64
2022/07/06 09:01:14;;;;;;;3.78;1.30;;;;;;;;;;5032507;28;20030;-64
2022/07/06 09:03:45;;;;;;;2.15;1.15;;;;;;;;;;5034000;28;20040;-64
2022/07/06 09:06:12;;;;;;;5.82;1.20;;;;;;;;;;5033631;28;20494;-64
2022/07/06 09:08:38;;;;;;;4.15;1.10;;;;;;;;;;5033134;28;20036;-64
2022/07/06 09:11:04;;;;;;;5.03;1.25;;;;;;;;;;5033370;28;20033;-64
2022/07/06 09:13:29;;;;;;;1.35;0.80;;;;;;;;;;5032733;28;20037;-64
2022/07/06 09:15:55;;;;;;;3.33;1.20;;;;;;;;;;5032866;28;20535;-65
2022/07/06 09:18:23;;;;;;;3.20;1.00;;;;;;;;;;5031693;28;20025;-65
2022/07/06 09:20:48;;;;;;;4.95;1.40;;;;;;;;;;5033348;28;20025;-65
2022/07/06 09:23:17;;;;;;;5.18;0.95;;;;;;;;;;5033289;28;20429;-65
2022/07/06 09:25:48;;;;;;;1.90;1.10;;;;;;;;;;5033263;28;20033;-64
2022/07/06 09:28:14;;;;;;;3.80;1.10;;;;;;;;;;5033211;28;20037;-64
2022/07/06 09:30:41;;;;;;;3.65;1.25;;;;;;;;;;5016677;28;20037;-64
2022/07/06 09:33:08;;;;;;;3.75;1.10;;;;;;;;;;5029886;28;20025;-64
2022/07/06 09:35:37;;;;;;;4.63;1.20;;;;;;;;;;5032499;28;20026;-64
2022/07/06 09:38:11;;;;;;;3.13;1.00;;;;;;;;;;5033262;28;20034;-64
2022/07/06 09:40:38;;;;;;;1.52;1.00;;;;;;;;;;5031782;28;20037;-64
2022/07/06 09:43:18;;;;;;;2.55;0.85;;;;;;;;;;5015360;28;20040;-64
2022/07/06 09:45:49;;;;;;;2.65;1.00;;;;;;;;;;5032176;28;20049;-64
2022/07/06 09:48:18;;;;;;;3.15;1.25;;;;;;;;;;5032912;28;20431;-64
2022/07/06 09:51:02;;;;;;;2.78;1.15;;;;;;;;;;5032841;28;20033;-64
2022/07/06 09:53:28;;;;;;;2.53;1.02;;;;;;;;;;5032418;28;20064;-64
2022/07/06 09:55:57;;;;;;;3.55;0.95;;;;;;;;;;5032787;28;20061;-65
2022/07/06 09:58:24;;;;;;;2.67;1.00;;;;;;;;;;5030164;28;20037;-65
2022/07/06 10:00:50;;;;;;;4.13;1.13;;;;;;;;;;5012744;28;20420;-64
2022/07/06 10:03:17;;;;;;;2.50;1.02;;;;;;;;;;5013098;28;20464;-65
2022/07/06 10:05:46;;;;;;;2.47;1.05;;;;;;;;;;5012698;28;20026;-66
2022/07/06 10:08:13;;;;;;;2.95;1.17;;;;;;;;;;5012882;28;20061;-64
2022/07/06 10:10:40;;;;;;;2.25;1.08;;;;;;;;;;5012327;28;20033;-64
2022/07/06 10:13:06;;;;;;;1.55;1.00;;;;;;;;;;5014256;28;20383;-65
2022/07/06 10:15:33;;;;;;;3.05;1.25;;;;;;;;;;5031668;28;20033;-63
2022/07/06 10:18:05;;;;;;;4.55;1.23;;;;;;;;;;5032406;28;20044;-64
2022/07/06 10:20:39;;;;;;;4.57;1.30;;;;;;;;;;5031934;28;20029;-64
2022/07/06 10:23:06;;;;;;;2.53;0.90;;;;;;;;;;5032300;28;20393;-64
2022/07/06 10:25:33;;;;;;;6.47;1.00;;;;;;;;;;5031635;28;20029;-65
2022/07/06 10:28:00;;;;;;;5.07;1.20;;;;;;;;;;5029225;28;20128;-65
2022/07/06 10:30:28;;;;;;;4.13;1.00;;;;;;;;;;5025601;28;20026;-64
2022/07/06 10:32:56;;;;;;;2.35;0.93;;;;;;;;;;5032330;28;20029;-64
2022/07/06 10:35:22;;;;;;;4.40;0.90;;;;;;;;;;5031609;28;20030;-65
2022/07/06 10:38:06;;;;;;;4.20;1.30;;;;;;;;;;5031311;28;20033;-64
2022/07/06 10:43:21;;;;;;;3.53;1.08;;;;;;;;;;5031672;28;20033;-65
2022/07/06 10:45:46;;;;;;;2.92;1.10;;;;;;;;;;5031686;28;20033;-64
2022/07/06 10:48:12;;;;;;;3.53;1.00;;;;;;;;;;5032132;28;20064;-64
2022/07/06 10:50:50;;;;;;;4.78;1.10;;;;;;;;;;5031288;28;20551;-64
2022/07/06 10:53:20;;;;;;;4.32;1.25;;;;;;;;;;5035891;28;20029;-64
2022/07/06 10:55:47;;;;;;;2.72;1.15;;;;;;;;;;5026203;28;20429;-64
2022/07/06 10:58:14;;;;;;;3.35;1.17;;;;;;;;;;5016243;28;20042;-64
2022/07/06 11:00:54;;;;;;;3.10;1.10;;;;;;;;;;5015743;28;20042;-65
2022/07/06 11:03:34;;;;;;;3.20;1.10;;;;;;;;;;5016420;28;20374;-65
2022/07/06 11:06:02;;;;;;;3.50;1.20;;;;;;;;;;5016614;28;20290;-64
2022/07/06 11:08:41;;;;;;;2.53;1.15;;;;;;;;;;5020093;28;20037;-65
2022/07/06 11:11:31;;;;;;;4.07;1.20;;;;;;;;;;5036122;28;20041;-64
2022/07/06 11:14:05;;;;;;;4.22;1.25;;;;;;;;;;5036144;28;20091;-65
2022/07/06 11:17:00;;;;;;;2.85;1.00;;;;;;;;;;5035247;28;20037;-65
2022/07/06 11:19:26;;;;;;;5.07;1.10;;;;;;;;;;5025720;28;20041;-65
2022/07/06 11:21:56;;;;;;;4.22;1.20;;;;;;;;;;5035815;28;20021;-64
2022/07/06 11:24:28;;;;;;;1.58;0.90;;;;;;;;;;5034634;28;20087;-63
2022/07/06 11:26:55;;;;;;;4.68;1.40;;;;;;;;;;5035621;28;20060;-63
2022/07/06 11:29:22;;;;;;;3.75;1.00;;;;;;;;;;5035496;28;20128;-63
2022/07/06 11:31:55;;;;;;;2.88;1.00;;;;;;;;;;5035639;28;20458;-63
2022/07/06 11:34:24;;;;;;;3.28;1.10;;;;;;;;;;5035528;28;20061;-63
2022/07/06 11:36:57;;;;;;;3.38;1.02;;;;;;;;;;5035208;28;20060;-65
2022/07/06 11:39:26;;;;;;;4.13;1.20;;;;;;;;;;5034366;28;20029;-65
2022/07/06 11:41:51;;;;;;;3.53;1.10;;;;;;;;;;5035455;28;20025;-64
2022/07/06 11:44:18;;;;;;;2.30;1.02;;;;;;;;;;5035150;28;20440;-64
2022/07/06 11:46:43;;;;;;;2.22;0.95;;;;;;;;;;5034574;28;20333;-66
2022/07/06 11:49:09;;;;;;;2.45;1.13;;;;;;;;;;5035371;28;20129;-65
2022/07/06 11:51:39;;;;;;;2.13;1.00;;;;;;;;;;5034589;28;20033;-64
2022/07/06 11:54:12;;;;;;;5.43;1.20;;;;;;;;;;5034279;28;20466;-64
2022/07/06 11:56:45;;;;;;;1.27;0.90;;;;;;;;;;5033526;28;20174;-64
2022/07/06 11:59:10;;;;;;;3.30;1.15;;;;;;;;;;5035266;28;20059;-64
2022/07/06 12:01:41;;;;;;;1.95;1.00;;;;;;;;;;5034802;28;20454;-64
2022/07/06 12:04:07;;;;;;;1.95;0.90;;;;;;;;;;5016839;28;20575;-64
2022/07/06 12:06:32;;;;;;;4.90;1.00;;;;;;;;;;5034190;28;20124;-65
2022/07/06 12:08:59;;;;;;;2.00;0.90;;;;;;;;;;5033896;28;20033;-64
2022/07/06 12:11:30;;;;;;;2.80;0.98;;;;;;;;;;5034231;28;20432;-64
2022/07/06 12:14:00;;;;;;;;;;;;;;;;;;5035563;28;20033;-64
2022/07/06 12:16:35;;;;;;;2.05;0.80;;;;;;;;;;5034196;28;19909;-65
2022/07/06 12:19:02;;;;;;;2.03;0.88;;;;;;;;;;5035191;28;20037;-64
2022/07/06 12:21:27;;;;;;;2.85;1.00;;;;;;;;;;5033408;28;20037;-64
2022/07/06 12:23:55;;;;;;;2.35;1.00;;;;;;;;;;5034067;28;20091;-64
2022/07/06 12:26:25;;;;;;;3.15;0.95;;;;;;;;;;5034417;28;20041;-64
2022/07/06 12:29:12;;;;;;;4.57;1.07;;;;;;;;;;5033667;28;20056;-65
2022/07/06 12:31:59;;;;;;;4.40;0.98;;;;;;;;;;5033842;28;20029;-64
2022/07/06 12:34:27;;;;;;;2.38;0.77;;;;;;;;;;5034556;28;20033;-64
2022/07/06 12:36:59;;;;;;;3.05;0.93;;;;;;;;;;5033181;28;20048;-63
2022/07/06 12:39:27;;;;;;;1.25;0.90;;;;;;;;;;5034424;28;20068;-63
2022/07/06 12:42:04;;;;;;;2.92;1.00;;;;;;;;;;5034674;28;20087;-63
2022/07/06 12:44:30;;;;;;;2.63;1.20;;;;;;;;;;5033720;28;20026;-64
2022/07/06 12:47:07;;;;;;;5.18;1.15;;;;;;;;;;5034059;28;20029;-63
2022/07/06 12:49:34;;;;;;;2.67;1.30;;;;;;;;;;5033706;28;20099;-65
2022/07/06 12:52:00;;;;;;;1.48;0.98;;;;;;;;;;5033515;28;20057;-64
2022/07/06 12:54:39;;;;;;;2.80;1.10;;;;;;;;;;5034144;28;20480;-64
2022/07/06 12:57:28;;;;;;;3.03;1.10;;;;;;;;;;5034007;28;20116;-64
2022/07/06 12:59:54;;;;;;;3.63;1.00;;;;;;;;;;5033915;28;20501;-63
2022/07/06 13:02:26;;;;;;;2.13;1.00;;;;;;;;;;5033940;28;20104;-64
2022/07/06 13:05:04;;;;;;;2.17;1.10;;;;;;;;;;5033282;28;20047;-65
2022/07/06 13:07:37;;;;;;;4.10;1.33;;;;;;;;;;5032188;28;20113;-64
2022/07/06 13:10:10;;;;;;;1.17;0.90;;;;;;;;;;5033931;28;20029;-64
2022/07/06 13:12:36;;;;;;;2.13;1.30;;;;;;;;;;5033140;28;20060;-65
2022/07/06 13:15:04;;;;;;;3.55;1.10;;;;;;;;;;5032826;28;20029;-64
2022/07/06 13:17:30;;;;;;;4.00;1.30;;;;;;;;;;5033072;28;20036;-64
2022/07/06 13:19:55;;;;;;;1.75;1.08;;;;;;;;;;5033585;28;20111;-64
2022/07/06 13:22:21;;;;;;;4.20;1.30;;;;;;;;;;5030756;28;20110;-64
2022/07/06 13:24:46;;;;;;;3.05;1.10;;;;;;;;;;5031635;28;20037;-64
2022/07/06 13:27:12;;;;;;;4.32;1.30;;;;;;;;;;5033326;28;20037;-64
2022/07/06 13:29:38;;;;;;;2.50;1.20;;;;;;;;;;5032554;28;20150;-64
2022/07/06 13:32:05;;;;;;;2.25;1.00;;;;;;;;;;5033130;28;20470;-64
2022/07/06 13:34:30;;;;;;;2.13;1.00;;;;;;;;;;5033134;28;20165;-64
2022/07/06 13:36:56;;;;;;;3.80;1.13;;;;;;;;;;5033287;28;20120;-64
2022/07/06 13:39:21;;;;;;;2.97;1.00;;;;;;;;;;5026675;28;20034;-64
2022/07/06 13:41:47;;;;;;;3.58;1.00;;;;;;;;;;4995264;28;20041;-65
2022/07/06 13:44:12;;;;;;;2.05;1.10;;;;;;;;;;5013513;28;20026;-64
2022/07/06 13:46:39;;;;;;;3.63;1.10;;;;;;;;;;5012705;28;20478;-64
2022/07/06 13:49:05;;;;;;;2.35;1.05;;;;;;;;;;5013329;28;20395;-64
2022/07/06 13:51:32;;;;;;;4.07;1.08;;;;;;;;;;5017072;28;20061;-64
2022/07/06 13:53:58;;;;;;;3.65;1.10;;;;;;;;;;5032895;28;20033;-64
2022/07/06 13:56:23;;;;;;;3.25;1.00;;;;;;;;;;5015139;28;20029;-64
2022/07/06 13:58:49;;;;;;;2.88;0.90;;;;;;;;;;5032260;28;20059;-64
2022/07/06 14:01:14;;;;;;;2.28;0.82;;;;;;;;;;5032838;28;20026;-64
2022/07/06 14:03:40;;;;;;;2.55;1.02;;;;;;;;;;5032170;28;20036;-64
2022/07/06 14:06:07;;;;;;;3.17;0.90;;;;;;;;;;5031677;28;20385;-64
2022/07/06 14:08:34;;;;;;;6.70;1.27;;;;;;;;;;5031881;28;20433;-64
2022/07/06 14:11:00;;;;;;;2.40;1.00;;;;;;;;;;5031401;28;20049;-65
2022/07/06 14:13:26;;;;;;;3.92;1.15;;;;;;;;;;5032628;28;20037;-64
2022/07/06 14:15:52;;;;;;;2.10;1.20;;;;;;;;;;5031715;28;20155;-65
2022/07/06 14:18:17;;;;;;;2.70;1.00;;;;;;;;;;5032622;28;20039;-65
2022/07/06 14:20:46;;;;;;;3.75;1.20;;;;;;;;;;5030837;28;20034;-64
2022/07/06 14:23:13;;;;;;;3.17;1.38;;;;;;;;;;5019493;28;20466;-64
2022/07/06 14:25:39;;;;;;;3.90;1.17;;;;;;;;;;5012346;28;20037;-65
2022/07/06 14:28:06;;;;;;;1.73;1.00;;;;;;;;;;5032486;28;20030;-65
2022/07/06 14:30:32;;;;;;;2.15;0.90;;;;;;;;;;5032440;28;20190;-64
2022/07/06 14:32:58;;;;;;;2.67;1.10;;;;;;;;;;5031535;28;20474;-65
2022/07/06 14:35:24;;;;;;;4.55;0.85;;;;;;;;;;5032245;28;20163;-65
2022/07/06 14:37:50;;;;;;;3.28;1.17;;;;;;;;;;5031471;28;20065;-64
2022/07/06 14:40:16;;;;;;;2.50;1.00;;;;;;;;;;5031425;28;20103;-65
2022/07/06 14:42:41;;;;;;;3.20;1.05;;;;;;;;;;5013997;28;20029;-65
2022/07/06 14:45:07;;;;;;;3.13;0.95;;;;;;;;;;5032454;28;20528;-64
2022/07/06 14:47:32;;;;;;;3.90;0.95;;;;;;;;;;5031871;28;20033;-64
2022/07/06 14:49:57;;;;;;;3.80;1.05;;;;;;;;;;5031552;28;20494;-65